sensor_id;sensor_type;location;lat;lon;timestamp;pressure;altitude;pressure_sealevel;temperature;humidity
9009;BME280;62813;51.424;6.762;2022-12-18T00:01:16;102652.66;;;-3.89;76.75
9009;BME280;62813;51.424;6.762;2022-12-18T00:03:43;102657.75;;;-3.89;76.83
9009;BME280;62813;51.424;6.762;2022-12-18T00:06:11;102652.66;;;-3.89;76.65
9009;BME280;62813;51.424;6.762;2022-12-18T00:08:38;102661.16;;;-3.88;76.47
9009;BME280;62813;51.424;6.762;2022-12-18T00:11:09;102660.28;;;-3.89;76.74
9009;BME280;62813;51.424;6.762;2022-12-18T00:13:36;102663.84;;;-3.85;76.75
9009;BME280;62813;51.424;6.762;2022-12-18T00:16:08;102660.44;;;-3.86;76.89
9009;BME280;62813;51.424;6.762;2022-12-18T00:18:36;102663.06;;;-3.84;76.75
9009;BME280;62813;51.424;6.762;2022-12-18T00:21:05;102658.03;;;-3.83;76.87
9009;BME280;62813;51.424;6.762;2022-12-18T00:23:34;102654.72;;;-3.82;76.73
9009;BME280;62813;51.424;6.762;2022-12-18T00:26:03;102654.00;;;-3.79;76.75
9009;BME280;62813;51.424;6.762;2022-12-18T00:28:30;102638.84;;;-3.78;76.63
9009;BME280;62813;51.424;6.762;2022-12-18T00:31:04;102638.03;;;-3.77;76.59
9009;BME280;62813;51.424;6.762;2022-12-18T00:33:31;102635.56;;;-3.75;76.49
9009;BME280;62813;51.424;6.762;2022-12-18T00:36:02;102634.88;;;-3.73;76.74
9009;BME280;62813;51.424;6.762;2022-12-18T00:38:29;102629.78;;;-3.73;76.37
9009;BME280;62813;51.424;6.762;2022-12-18T00:40:56;102639.16;;;-3.72;76.33
9009;BME280;62813;51.424;6.762;2022-12-18T00:43:22;102640.00;;;-3.71;76.45
9009;BME280;62813;51.424;6.762;2022-12-18T00:45:49;102644.34;;;-3.68;76.59
9009;BME280;62813;51.424;6.762;2022-12-18T00:48:16;102643.56;;;-3.67;76.45
9009;BME280;62813;51.424;6.762;2022-12-18T00:50:42;102638.63;;;-3.64;76.17
9009;BME280;62813;51.424;6.762;2022-12-18T00:53:12;102642.09;;;-3.62;76.28
9009;BME280;62813;51.424;6.762;2022-12-18T00:55:41;102636.09;;;-3.64;76.21
9009;BME280;62813;51.424;6.762;2022-12-18T00:58:09;102633.69;;;-3.61;76.32
9009;BME280;62813;51.424;6.762;2022-12-18T01:00:36;102634.25;;;-3.67;76.13
9009;BME280;62813;51.424;6.762;2022-12-18T01:03:05;102633.50;;;-3.66;76.14
9009;BME280;62813;51.424;6.762;2022-12-18T01:05:32;102647.06;;;-3.65;76.38
9009;BME280;62813;51.424;6.762;2022-12-18T01:07:59;102656.41;;;-3.64;76.43
9009;BME280;62813;51.424;6.762;2022-12-18T01:10:26;102659.81;;;-3.64;76.64
9009;BME280;62813;51.424;6.762;2022-12-18T01:12:52;102654.78;;;-3.62;76.34
9009;BME280;62813;51.424;6.762;2022-12-18T01:15:19;102643.72;;;-3.64;76.53
9009;BME280;62813;51.424;6.762;2022-12-18T01:17:46;102641.00;;;-3.67;76.29
9009;BME280;62813;51.424;6.762;2022-12-18T01:20:13;102640.38;;;-3.63;76.40
9009;BME280;62813;51.424;6.762;2022-12-18T01:22:39;102635.28;;;-3.63;76.32
9009;BME280;62813;51.424;6.762;2022-12-18T01:25:06;102630.22;;;-3.63;76.41
9009;BME280;62813;51.424;6.762;2022-12-18T01:27:33;102622.66;;;-3.62;76.24
9009;BME280;62813;51.424;6.762;2022-12-18T01:30:00;102638.63;;;-3.64;76.37
9009;BME280;62813;51.424;6.762;2022-12-18T01:32:30;102637.03;;;-3.62;76.42
9009;BME280;62813;51.424;6.762;2022-12-18T01:34:57;102620.94;;;-3.63;76.44
9009;BME280;62813;51.424;6.762;2022-12-18T01:37:24;102633.78;;;-3.60;76.59
9009;BME280;62813;51.424;6.762;2022-12-18T01:39:52;102625.28;;;-3.60;76.40
9009;BME280;62813;51.424;6.762;2022-12-18T01:42:21;102627.03;;;-3.59;76.32
9009;BME280;62813;51.424;6.762;2022-12-18T01:47:43;102627.03;;;-3.59;76.38
9009;BME280;62813;51.424;6.762;2022-12-18T01:52:47;102632.81;;;-3.62;76.35
9009;BME280;62813;51.424;6.762;2022-12-18T01:55:19;102637.91;;;-3.62;76.40
9009;BME280;62813;51.424;6.762;2022-12-18T01:57:47;102643.84;;;-3.61;76.37
9009;BME280;62813;51.424;6.762;2022-12-18T02:00:17;102650.59;;;-3.62;76.59
9009;BME280;62813;51.424;6.762;2022-12-18T02:02:45;102650.53;;;-3.63;76.44
9009;BME280;62813;51.424;6.762;2022-12-18T02:05:15;102649.72;;;-3.62;76.36
9009;BME280;62813;51.424;6.762;2022-12-18T02:10:20;102643.03;;;-3.60;76.34
9009;BME280;62813;51.424;6.762;2022-12-18T02:13:13;102642.19;;;-3.61;76.03
9009;BME280;62813;51.424;6.762;2022-12-18T02:16:08;102642.19;;;-3.61;76.22
9009;BME280;62813;51.424;6.762;2022-12-18T02:18:42;102638.78;;;-3.61;76.43
9009;BME280;62813;51.424;6.762;2022-12-18T02:24:06;102632.75;;;-3.63;76.26
9009;BME280;62813;51.424;6.762;2022-12-18T02:26:41;102631.97;;;-3.62;76.36
9009;BME280;62813;51.424;6.762;2022-12-18T02:29:15;102631.97;;;-3.62;76.26
9009;BME280;62813;51.424;6.762;2022-12-18T02:31:45;102619.34;;;-3.61;76.14
9009;BME280;62813;51.424;6.762;2022-12-18T02:34:14;102615.88;;;-3.63;76.15
9009;BME280;62813;51.424;6.762;2022-12-18T02:36:43;102615.13;;;-3.60;76.08
9009;BME280;62813;51.424;6.762;2022-12-18T02:39:13;102621.00;;;-3.61;75.92
9009;BME280;62813;51.424;6.762;2022-12-18T02:41:41;102621.00;;;-3.61;76.31
9009;BME280;62813;51.424;6.762;2022-12-18T02:44:11;102621.81;;;-3.62;75.90
9009;BME280;62813;51.424;6.762;2022-12-18T02:46:41;102633.69;;;-3.61;75.92
9009;BME280;62813;51.424;6.762;2022-12-18T02:57:46;102628.91;;;-3.55;76.30
9009;BME280;62813;51.424;6.762;2022-12-18T03:00:19;102632.25;;;-3.56;75.83
9009;BME280;62813;51.424;6.762;2022-12-18T03:02:55;102631.50;;;-3.54;76.15
9009;BME280;62813;51.424;6.762;2022-12-18T03:05:39;102631.44;;;-3.55;76.17
9009;BME280;62813;51.424;6.762;2022-12-18T03:08:18;102625.50;;;-3.56;76.03
9009;BME280;62813;51.424;6.762;2022-12-18T03:10:58;102623.84;;;-3.55;75.95
9009;BME280;62813;51.424;6.762;2022-12-18T03:13:35;102617.16;;;-3.53;76.03
9009;BME280;62813;51.424;6.762;2022-12-18T03:16:05;102602.94;;;-3.50;76.14
9009;BME280;62813;51.424;6.762;2022-12-18T03:18:37;102602.94;;;-3.50;76.14
9009;BME280;62813;51.424;6.762;2022-12-18T03:21:06;102607.16;;;-3.50;76.25
9009;BME280;62813;51.424;6.762;2022-12-18T03:23:38;102598.59;;;-3.52;76.27
9009;BME280;62813;51.424;6.762;2022-12-18T03:26:09;102604.69;;;-3.49;76.10
9009;BME280;62813;51.424;6.762;2022-12-18T03:28:40;102602.88;;;-3.51;76.10
9009;BME280;62813;51.424;6.762;2022-12-18T03:31:10;102607.16;;;-3.50;76.29
9009;BME280;62813;51.424;6.762;2022-12-18T03:34:09;102611.50;;;-3.48;76.55
9009;BME280;62813;51.424;6.762;2022-12-18T03:36:39;102608.16;;;-3.47;76.54
9009;BME280;62813;51.424;6.762;2022-12-18T03:39:06;102603.22;;;-3.43;76.26
9009;BME280;62813;51.424;6.762;2022-12-18T03:41:34;102603.34;;;-3.40;76.34
9009;BME280;62813;51.424;6.762;2022-12-18T03:44:33;102599.16;;;-3.40;76.34
9009;BME280;62813;51.424;6.762;2022-12-18T03:47:07;102596.75;;;-3.37;76.68
9009;BME280;62813;51.424;6.762;2022-12-18T03:52:36;102601.91;;;-3.35;76.34
9009;BME280;62813;51.424;6.762;2022-12-18T03:55:06;102604.50;;;-3.34;76.68
9009;BME280;62813;51.424;6.762;2022-12-18T03:57:33;102605.31;;;-3.35;76.66
9009;BME280;62813;51.424;6.762;2022-12-18T04:00:19;102602.78;;;-3.35;76.69
9009;BME280;62813;51.424;6.762;2022-12-18T04:02:52;102593.47;;;-3.34;76.82
9009;BME280;62813;51.424;6.762;2022-12-18T04:05:22;102595.22;;;-3.33;76.57
9009;BME280;62813;51.424;6.762;2022-12-18T04:07:51;102597.03;;;-3.31;76.67
9009;BME280;62813;51.424;6.762;2022-12-18T04:10:18;102589.50;;;-3.29;76.71
9009;BME280;62813;51.424;6.762;2022-12-18T04:12:45;102593.75;;;-3.28;76.76
9009;BME280;62813;51.424;6.762;2022-12-18T04:15:12;102596.44;;;-3.25;76.43
9009;BME280;62813;51.424;6.762;2022-12-18T04:17:46;102583.00;;;-3.23;76.46
9009;BME280;62813;51.424;6.762;2022-12-18T04:20:13;102589.03;;;-3.21;76.33
9009;BME280;62813;51.424;6.762;2022-12-18T04:22:39;102588.16;;;-3.21;76.43
9009;BME280;62813;51.424;6.762;2022-12-18T04:25:06;102593.19;;;-3.23;76.33
9009;BME280;62813;51.424;6.762;2022-12-18T04:27:33;102590.63;;;-3.23;76.12
9009;BME280;62813;51.424;6.762;2022-12-18T04:30:00;102589.84;;;-3.22;76.29
9009;BME280;62813;51.424;6.762;2022-12-18T04:32:27;102584.75;;;-3.22;76.37
9009;BME280;62813;51.424;6.762;2022-12-18T04:34:53;102586.44;;;-3.22;76.13
9009;BME280;62813;51.424;6.762;2022-12-18T04:37:20;102579.66;;;-3.22;76.39
9009;BME280;62813;51.424;6.762;2022-12-18T04:39:46;102575.41;;;-3.23;76.17
9009;BME280;62813;51.424;6.762;2022-12-18T04:42:13;102574.53;;;-3.23;76.07
9009;BME280;62813;51.424;6.762;2022-12-18T04:44:39;102581.13;;;-3.27;76.26
9009;BME280;62813;51.424;6.762;2022-12-18T04:47:06;102573.44;;;-3.28;75.99
9009;BME280;62813;51.424;6.762;2022-12-18T04:49:34;102573.38;;;-3.30;76.15
9009;BME280;62813;51.424;6.762;2022-12-18T04:52:00;102579.34;;;-3.29;76.52
9009;BME280;62813;51.424;6.762;2022-12-18T04:54:27;102575.06;;;-3.30;76.36
9009;BME280;62813;51.424;6.762;2022-12-18T04:56:54;102578.47;;;-3.30;76.19
9009;BME280;62813;51.424;6.762;2022-12-18T04:59:20;102561.41;;;-3.32;76.53
9009;BME280;62813;51.424;6.762;2022-12-18T05:01:47;102576.56;;;-3.34;76.27
9009;BME280;62813;51.424;6.762;2022-12-18T05:04:14;102570.56;;;-3.36;76.33
9009;BME280;62813;51.424;6.762;2022-12-18T05:06:40;102560.25;;;-3.39;76.09
9009;BME280;62813;51.424;6.762;2022-12-18T05:09:07;102557.66;;;-3.40;76.13
9009;BME280;62813;51.424;6.762;2022-12-18T05:11:34;102558.41;;;-3.43;75.97
9009;BME280;62813;51.424;6.762;2022-12-18T05:14:01;102561.69;;;-3.46;75.95
9009;BME280;62813;51.424;6.762;2022-12-18T05:16:27;102562.38;;;-3.48;76.11
9009;BME280;62813;51.424;6.762;2022-12-18T05:18:54;102562.31;;;-3.50;76.08
9009;BME280;62813;51.424;6.762;2022-12-18T05:21:21;102560.44;;;-3.54;76.18
9009;BME280;62813;51.424;6.762;2022-12-18T05:23:47;102557.13;;;-3.53;76.48
9009;BME280;62813;51.424;6.762;2022-12-18T05:26:16;102561.19;;;-3.56;76.36
9009;BME280;62813;51.424;6.762;2022-12-18T05:28:43;102559.44;;;-3.57;76.55
9009;BME280;62813;51.424;6.762;2022-12-18T05:31:10;102567.88;;;-3.58;76.30
9009;BME280;62813;51.424;6.762;2022-12-18T05:33:37;102566.84;;;-3.62;76.27
9009;BME280;62813;51.424;6.762;2022-12-18T05:36:07;102568.50;;;-3.62;76.33
9009;BME280;62813;51.424;6.762;2022-12-18T05:38:35;102576.88;;;-3.65;76.16
9009;BME280;62813;51.424;6.762;2022-12-18T05:41:03;102568.28;;;-3.67;76.35
9009;BME280;62813;51.424;6.762;2022-12-18T05:43:30;102572.50;;;-3.67;76.22
9009;BME280;62813;51.424;6.762;2022-12-18T05:45:57;102574.09;;;-3.69;76.28
9009;BME280;62813;51.424;6.762;2022-12-18T05:48:23;102577.44;;;-3.70;76.33
9009;BME280;62813;51.424;6.762;2022-12-18T05:50:50;102590.13;;;-3.70;76.29
9009;BME280;62813;51.424;6.762;2022-12-18T05:53:19;102599.34;;;-3.73;76.26
9009;BME280;62813;51.424;6.762;2022-12-18T05:55:46;102599.34;;;-3.73;76.09
9009;BME280;62813;51.424;6.762;2022-12-18T05:58:14;102600.91;;;-3.75;75.96
9009;BME280;62813;51.424;6.762;2022-12-18T06:00:42;102604.25;;;-3.76;76.18
9009;BME280;62813;51.424;6.762;2022-12-18T06:03:10;102607.59;;;-3.77;76.14
9009;BME280;62813;51.424;6.762;2022-12-18T06:05:43;102609.34;;;-3.76;76.26
9009;BME280;62813;51.424;6.762;2022-12-18T06:08:11;102612.69;;;-3.77;76.11
9009;BME280;62813;51.424;6.762;2022-12-18T06:10:39;102620.97;;;-3.81;76.01
9009;BME280;62813;51.424;6.762;2022-12-18T06:13:06;102627.66;;;-3.81;76.10
9009;BME280;62813;51.424;6.762;2022-12-18T06:15:36;102638.72;;;-3.81;76.25
9009;BME280;62813;51.424;6.762;2022-12-18T06:18:03;102631.88;;;-3.82;76.01
9009;BME280;62813;51.424;6.762;2022-12-18T06:20:29;102636.94;;;-3.82;75.95
9009;BME280;62813;51.424;6.762;2022-12-18T06:22:59;102633.41;;;-3.85;75.75
9009;BME280;62813;51.424;6.762;2022-12-18T06:25:25;102633.41;;;-3.85;75.99
9009;BME280;62813;51.424;6.762;2022-12-18T06:27:52;102619.06;;;-3.85;75.93
9009;BME280;62813;51.424;6.762;2022-12-18T06:30:19;102612.25;;;-3.86;76.07
9009;BME280;62813;51.424;6.762;2022-12-18T06:32:45;102607.97;;;-3.87;76.03
9009;BME280;62813;51.424;6.762;2022-12-18T06:35:21;102607.00;;;-3.89;75.74
9009;BME280;62813;51.424;6.762;2022-12-18T06:37:48;102608.63;;;-3.91;76.03
9009;BME280;62813;51.424;6.762;2022-12-18T06:40:14;102599.28;;;-3.92;75.85
9009;BME280;62813;51.424;6.762;2022-12-18T06:42:41;102594.06;;;-3.95;75.75
9009;BME280;62813;51.424;6.762;2022-12-18T06:45:08;102592.22;;;-3.97;76.00
9009;BME280;62813;51.424;6.762;2022-12-18T06:47:34;102595.50;;;-4.00;75.92
9009;BME280;62813;51.424;6.762;2022-12-18T06:50:01;102589.50;;;-4.02;76.00
9009;BME280;62813;51.424;6.762;2022-12-18T06:52:27;102582.66;;;-4.03;75.83
9009;BME280;62813;51.424;6.762;2022-12-18T06:54:54;102573.31;;;-4.04;75.75
9009;BME280;62813;51.424;6.762;2022-12-18T06:57:20;102572.38;;;-4.06;75.63
9009;BME280;62813;51.424;6.762;2022-12-18T06:59:47;102567.13;;;-4.09;75.69
9009;BME280;62813;51.424;6.762;2022-12-18T07:02:14;102563.69;;;-4.11;75.76
9009;BME280;62813;51.424;6.762;2022-12-18T07:04:40;102569.53;;;-4.12;75.94
9009;BME280;62813;51.424;6.762;2022-12-18T07:07:07;102560.94;;;-4.16;75.95
9009;BME280;62813;51.424;6.762;2022-12-18T07:09:33;102567.59;;;-4.18;75.87
9009;BME280;62813;51.424;6.762;2022-12-18T07:12:00;102574.31;;;-4.18;75.93
9009;BME280;62813;51.424;6.762;2022-12-18T07:14:26;102577.59;;;-4.21;75.81
9009;BME280;62813;51.424;6.762;2022-12-18T07:16:53;102575.06;;;-4.21;75.92
9009;BME280;62813;51.424;6.762;2022-12-18T07:19:20;102569.19;;;-4.20;76.10
9009;BME280;62813;51.424;6.762;2022-12-18T07:21:47;102573.38;;;-4.20;76.22
9009;BME280;62813;51.424;6.762;2022-12-18T07:24:13;102576.84;;;-4.18;76.18
9009;BME280;62813;51.424;6.762;2022-12-18T07:26:40;102570.91;;;-4.19;76.04
9009;BME280;62813;51.424;6.762;2022-12-18T07:29:07;102569.25;;;-4.18;76.14
9009;BME280;62813;51.424;6.762;2022-12-18T07:31:34;102559.91;;;-4.19;76.31
9009;BME280;62813;51.424;6.762;2022-12-18T07:34:00;102558.16;;;-4.20;76.13
9009;BME280;62813;51.424;6.762;2022-12-18T07:36:27;102560.78;;;-4.19;75.99
9009;BME280;62813;51.424;6.762;2022-12-18T07:38:54;102551.38;;;-4.21;76.00
9009;BME280;62813;51.424;6.762;2022-12-18T07:41:20;102559.09;;;-4.18;75.92
9009;BME280;62813;51.424;6.762;2022-12-18T07:43:48;102555.69;;;-4.19;75.97
9009;BME280;62813;51.424;6.762;2022-12-18T07:46:15;102558.31;;;-4.17;76.21
9009;BME280;62813;51.424;6.762;2022-12-18T07:48:42;102566.88;;;-4.15;75.88
9009;BME280;62813;51.424;6.762;2022-12-18T07:51:15;102565.28;;;-4.13;76.13
9009;BME280;62813;51.424;6.762;2022-12-18T07:53:43;102570.34;;;-4.13;76.11
9009;BME280;62813;51.424;6.762;2022-12-18T07:56:12;102566.28;;;-4.10;76.23
9009;BME280;62813;51.424;6.762;2022-12-18T07:58:57;102564.78;;;-4.06;76.02
9009;BME280;62813;51.424;6.762;2022-12-18T08:01:24;102564.13;;;-4.02;76.17
9009;BME280;62813;51.424;6.762;2022-12-18T08:03:51;102557.59;;;-3.97;76.10
9009;BME280;62813;51.424;6.762;2022-12-18T08:06:18;102543.34;;;-3.95;75.80
9009;BME280;62813;51.424;6.762;2022-12-18T08:08:53;102533.44;;;-3.89;75.88
9009;BME280;62813;51.424;6.762;2022-12-18T08:11:22;102533.72;;;-3.83;75.85
9009;BME280;62813;51.424;6.762;2022-12-18T08:13:49;102528.13;;;-3.76;75.77
9009;BME280;62813;51.424;6.762;2022-12-18T08:16:16;102525.94;;;-3.68;75.73
9009;BME280;62813;51.424;6.762;2022-12-18T08:18:43;102527.25;;;-3.58;75.68
9009;BME280;62813;51.424;6.762;2022-12-18T08:21:14;102527.59;;;-3.51;75.76
9009;BME280;62813;51.424;6.762;2022-12-18T08:23:42;102525.47;;;-3.41;75.67
9009;BME280;62813;51.424;6.762;2022-12-18T08:26:10;102516.50;;;-3.33;75.86
9009;BME280;62813;51.424;6.762;2022-12-18T08:28:37;102505.09;;;-3.24;75.88
9009;BME280;62813;51.424;6.762;2022-12-18T08:31:04;102502.03;;;-3.17;75.66
9009;BME280;62813;51.424;6.762;2022-12-18T08:33:31;102499.66;;;-3.12;75.33
9009;BME280;62813;51.424;6.762;2022-12-18T08:35:59;102497.31;;;-3.07;75.22
9009;BME280;62813;51.424;6.762;2022-12-18T08:38:25;102502.66;;;-3.01;75.33
9009;BME280;62813;51.424;6.762;2022-12-18T08:41:03;102493.63;;;-2.95;75.36
9009;BME280;62813;51.424;6.762;2022-12-18T08:43:30;102500.78;;;-2.86;75.00
9009;BME280;62813;51.424;6.762;2022-12-18T08:46:16;102499.34;;;-2.79;75.32
9009;BME280;62813;51.424;6.762;2022-12-18T08:48:43;102501.22;;;-2.75;74.88
9009;BME280;62813;51.424;6.762;2022-12-18T08:51:10;102507.41;;;-2.69;74.76
9009;BME280;62813;51.424;6.762;2022-12-18T08:53:36;102505.94;;;-2.64;74.44
9009;BME280;62813;51.424;6.762;2022-12-18T08:56:05;102501.97;;;-2.57;74.39
9009;BME280;62813;51.424;6.762;2022-12-18T08:58:31;102507.03;;;-2.57;73.75
9009;BME280;62813;51.424;6.762;2022-12-18T09:01:02;102502.97;;;-2.53;74.26
9009;BME280;62813;51.424;6.762;2022-12-18T09:03:30;102502.41;;;-2.46;73.86
9009;BME280;62813;51.424;6.762;2022-12-18T09:05:57;102496.78;;;-2.39;73.52
9009;BME280;62813;51.424;6.762;2022-12-18T09:08:24;102485.78;;;-2.38;72.80
9009;BME280;62813;51.424;6.762;2022-12-18T09:10:50;102480.13;;;-2.31;72.65
9009;BME280;62813;51.424;6.762;2022-12-18T09:13:17;102481.88;;;-2.30;72.87
9009;BME280;62813;51.424;6.762;2022-12-18T09:15:46;102482.84;;;-2.26;72.73
9009;BME280;62813;51.424;6.762;2022-12-18T09:18:16;102483.03;;;-2.22;72.65
9009;BME280;62813;51.424;6.762;2022-12-18T09:20:43;102490.56;;;-2.25;72.31
9009;BME280;62813;51.424;6.762;2022-12-18T09:23:10;102483.88;;;-2.21;72.06
9009;BME280;62813;51.424;6.762;2022-12-18T09:25:37;102479.22;;;-2.11;72.64
9009;BME280;62813;51.424;6.762;2022-12-18T09:28:09;102481.44;;;-1.97;72.99
9009;BME280;62813;51.424;6.762;2022-12-18T09:30:40;102477.88;;;-1.79;72.69
9009;BME280;62813;51.424;6.762;2022-12-18T09:33:07;102473.66;;;-1.78;71.09
9009;BME280;62813;51.424;6.762;2022-12-18T09:35:37;102479.22;;;-1.66;71.27
9009;BME280;62813;51.424;6.762;2022-12-18T09:38:09;102477.25;;;-1.49;72.32
9009;BME280;62813;51.424;6.762;2022-12-18T09:40:48;102491.81;;;-1.46;70.40
9009;BME280;62813;51.424;6.762;2022-12-18T09:43:30;102483.78;;;-1.33;71.26
9009;BME280;62813;51.424;6.762;2022-12-18T09:46:05;102464.63;;;-1.22;71.10
9009;BME280;62813;51.424;6.762;2022-12-18T09:48:35;102451.47;;;-1.10;69.95
9009;BME280;62813;51.424;6.762;2022-12-18T09:51:09;102446.72;;;-1.00;70.22
9009;BME280;62813;51.424;6.762;2022-12-18T09:53:41;102439.97;;;-0.99;68.38
9009;BME280;62813;51.424;6.762;2022-12-18T09:56:17;102441.69;;;-0.98;68.57
9009;BME280;62813;51.424;6.762;2022-12-18T09:58:50;102452.97;;;-0.91;68.98
9009;BME280;62813;51.424;6.762;2022-12-18T10:01:21;102455.34;;;-0.96;68.11
9009;BME280;62813;51.424;6.762;2022-12-18T10:03:50;102453.09;;;-0.87;67.91
9009;BME280;62813;51.424;6.762;2022-12-18T10:11:37;102434.88;;;-0.72;67.17
9009;BME280;62813;51.424;6.762;2022-12-18T10:25:23;102415.53;;;-0.38;67.27
9009;BME280;62813;51.424;6.762;2022-12-18T10:27:55;102417.19;;;-0.41;66.30
9009;BME280;62813;51.424;6.762;2022-12-18T10:30:23;102408.50;;;-0.46;65.38
9009;BME280;62813;51.424;6.762;2022-12-18T10:32:51;102413.03;;;-0.37;66.67
9009;BME280;62813;51.424;6.762;2022-12-18T10:35:21;102411.53;;;-0.30;66.55
9009;BME280;62813;51.424;6.762;2022-12-18T10:38:20;102405.03;;;-0.21;65.88
9009;BME280;62813;51.424;6.762;2022-12-18T10:40:55;102406.94;;;-0.14;65.65
9009;BME280;62813;51.424;6.762;2022-12-18T10:43:25;102409.28;;;-0.21;64.80
9009;BME280;62813;51.424;6.762;2022-12-18T10:48:56;102398.69;;;-0.33;63.92
9009;BME280;62813;51.424;6.762;2022-12-18T10:54:02;102369.88;;;-0.29;63.92
9009;BME280;62813;51.424;6.762;2022-12-18T10:56:34;102374.97;;;-0.29;63.93
9009;BME280;62813;51.424;6.762;2022-12-18T10:59:03;102372.44;;;-0.29;64.09
9009;BME280;62813;51.424;6.762;2022-12-18T11:06:54;102360.50;;;-0.30;64.02
9009;BME280;62813;51.424;6.762;2022-12-18T11:09:24;102367.41;;;-0.28;63.90
9009;BME280;62813;51.424;6.762;2022-12-18T11:11:52;102372.56;;;-0.25;63.75
9009;BME280;62813;51.424;6.762;2022-12-18T11:14:35;102365.69;;;-0.27;63.98
9009;BME280;62813;51.424;6.762;2022-12-18T11:17:28;102359.84;;;-0.23;63.97
9009;BME280;62813;51.424;6.762;2022-12-18T11:19:58;102356.59;;;-0.19;64.07
9009;BME280;62813;51.424;6.762;2022-12-18T11:22:29;102349.81;;;-0.17;63.82
9009;BME280;62813;51.424;6.762;2022-12-18T11:24:59;102349.84;;;-0.16;63.42
9009;BME280;62813;51.424;6.762;2022-12-18T11:27:59;102350.00;;;-0.11;63.63
9009;BME280;62813;51.424;6.762;2022-12-18T11:30:29;102334.00;;;-0.05;63.39
9009;BME280;62813;51.424;6.762;2022-12-18T11:33:01;102327.16;;;-0.06;63.62
9009;BME280;62813;51.424;6.762;2022-12-18T11:40:55;102306.81;;;-0.03;63.62
9009;BME280;62813;51.424;6.762;2022-12-18T11:43:31;102301.59;;;-0.08;63.38
9009;BME280;62813;51.424;6.762;2022-12-18T11:46:10;102310.16;;;-0.06;63.33
9009;BME280;62813;51.424;6.762;2022-12-18T11:48:49;102301.81;;;-0.00;63.45
9009;BME280;62813;51.424;6.762;2022-12-18T11:51:27;102298.31;;;-0.04;62.88
9009;BME280;62813;51.424;6.762;2022-12-18T11:53:56;102303.53;;;0.01;63.23
9009;BME280;62813;51.424;6.762;2022-12-18T11:56:30;102300.88;;;-0.02;63.24
9009;BME280;62813;51.424;6.762;2022-12-18T11:59:08;102303.56;;;0.02;63.50
9009;BME280;62813;51.424;6.762;2022-12-18T12:01:55;102299.38;;;0.04;62.77
9009;BME280;62813;51.424;6.762;2022-12-18T12:07:04;102288.44;;;0.08;62.72
9009;BME280;62813;51.424;6.762;2022-12-18T12:18:40;102296.00;;;0.05;62.80
9009;BME280;62813;51.424;6.762;2022-12-18T12:24:02;102283.41;;;0.11;62.04
9009;BME280;62813;51.424;6.762;2022-12-18T12:26:52;102265.53;;;0.11;62.36
9009;BME280;62813;51.424;6.762;2022-12-18T12:29:24;102270.66;;;0.13;62.38
9009;BME280;62813;51.424;6.762;2022-12-18T12:38:04;102276.50;;;0.07;62.53
9009;BME280;62813;51.424;6.762;2022-12-18T12:40:35;102269.59;;;0.05;62.33
9009;BME280;62813;51.424;6.762;2022-12-18T12:43:25;102262.88;;;0.07;62.54
9009;BME280;62813;51.424;6.762;2022-12-18T12:45:57;102262.09;;;0.11;62.03
9009;BME280;62813;51.424;6.762;2022-12-18T12:48:49;102258.63;;;0.07;62.30
9009;BME280;62813;51.424;6.762;2022-12-18T12:51:26;102246.66;;;0.06;62.60
9009;BME280;62813;51.424;6.762;2022-12-18T12:53:56;102257.78;;;0.08;62.55
9009;BME280;62813;51.424;6.762;2022-12-18T12:56:27;102261.19;;;0.07;61.79
9009;BME280;62813;51.424;6.762;2022-12-18T13:04:58;102258.47;;;0.01;62.52
9009;BME280;62813;51.424;6.762;2022-12-18T13:07:32;102263.47;;;-0.02;62.30
9009;BME280;62813;51.424;6.762;2022-12-18T13:12:53;102253.34;;;0.01;62.54
9009;BME280;62813;51.424;6.762;2022-12-18T13:18:09;102237.09;;;-0.01;62.54
9009;BME280;62813;51.424;6.762;2022-12-18T13:20:44;102236.31;;;0.00;63.11
9009;BME280;62813;51.424;6.762;2022-12-18T13:31:02;102218.31;;;-0.04;62.81
9009;BME280;62813;51.424;6.762;2022-12-18T13:36:29;102196.13;;;-0.07;62.44
9009;BME280;62813;51.424;6.762;2022-12-18T13:41:35;102197.91;;;-0.04;62.45
9009;BME280;62813;51.424;6.762;2022-12-18T13:44:12;102191.06;;;-0.05;62.07
9009;BME280;62813;51.424;6.762;2022-12-18T13:46:44;102185.88;;;-0.08;62.17
9009;BME280;62813;51.424;6.762;2022-12-18T13:51:44;102174.88;;;-0.07;62.46
9009;BME280;62813;51.424;6.762;2022-12-18T13:54:33;102173.16;;;-0.07;62.11
9009;BME280;62813;51.424;6.762;2022-12-18T13:57:02;102173.19;;;-0.05;62.72
9009;BME280;62813;51.424;6.762;2022-12-18T13:59:39;102172.34;;;-0.06;62.56
9009;BME280;62813;51.424;6.762;2022-12-18T14:02:15;102170.56;;;-0.08;62.67
9009;BME280;62813;51.424;6.762;2022-12-18T14:04:45;102170.63;;;-0.07;62.78
9009;BME280;62813;51.424;6.762;2022-12-18T14:07:15;102161.31;;;-0.05;62.85
9009;BME280;62813;51.424;6.762;2022-12-18T14:09:47;102157.88;;;-0.05;62.13
9009;BME280;62813;51.424;6.762;2022-12-18T14:12:20;102164.75;;;-0.03;62.40
9009;BME280;62813;51.424;6.762;2022-12-18T14:15:39;102166.41;;;-0.05;61.69
9009;BME280;62813;51.424;6.762;2022-12-18T14:18:25;102165.53;;;-0.05;62.16
9009;BME280;62813;51.424;6.762;2022-12-18T14:20:56;102157.84;;;-0.07;62.03
9009;BME280;62813;51.424;6.762;2022-12-18T14:23:36;102153.53;;;-0.09;61.76
9009;BME280;62813;51.424;6.762;2022-12-18T14:26:20;102142.38;;;-0.13;62.02
9009;BME280;62813;51.424;6.762;2022-12-18T14:28:48;102139.81;;;-0.15;61.96
9009;BME280;62813;51.424;6.762;2022-12-18T14:31:19;102132.19;;;-0.13;61.54
9009;BME280;62813;51.424;6.762;2022-12-18T14:33:46;102132.25;;;-0.10;61.46
9009;BME280;62813;51.424;6.762;2022-12-18T14:36:17;102138.16;;;-0.13;61.54
9009;BME280;62813;51.424;6.762;2022-12-18T14:38:48;102131.31;;;-0.14;61.95
9009;BME280;62813;51.424;6.762;2022-12-18T14:41:16;102139.84;;;-0.13;62.18
9009;BME280;62813;51.424;6.762;2022-12-18T14:43:45;102151.66;;;-0.15;62.18
9009;BME280;62813;51.424;6.762;2022-12-18T14:46:36;102134.63;;;-0.16;62.41
9009;BME280;62813;51.424;6.762;2022-12-18T14:49:17;102135.56;;;-0.14;62.50
9009;BME280;62813;51.424;6.762;2022-12-18T14:51:51;102129.50;;;-0.18;62.37
9009;BME280;62813;51.424;6.762;2022-12-18T14:54:20;102121.88;;;-0.16;61.80
9009;BME280;62813;51.424;6.762;2022-12-18T14:59:24;102118.50;;;-0.15;61.83
9009;BME280;62813;51.424;6.762;2022-12-18T15:04:30;102116.78;;;-0.16;61.73
9009;BME280;62813;51.424;6.762;2022-12-18T15:07:14;102122.69;;;-0.17;61.90